sensor_id;sensor_type;location;lat;lon;timestamp;P1;durP1;ratioP1;P2;durP2;ratioP2
59042;SDS011;44826;51.596;5.624;2023-07-13T00:00:22;2.53;;;1.15;;
59042;SDS011;44826;51.596;5.624;2023-07-13T00:02:47;4.63;;;1.33;;
59042;SDS011;44826;51.596;5.624;2023-07-13T00:05:13;4.20;;;1.25;;
59042;SDS011;44826;51.596;5.624;2023-07-13T00:07:38;4.53;;;0.98;;
59042;SDS011;44826;51.596;5.624;2023-07-13T00:10:04;3.45;;;0.80;;
59042;SDS011;44826;51.596;5.624;2023-07-13T00:12:31;2.90;;;0.85;;
59042;SDS011;44826;51.596;5.624;2023-07-13T00:14:59;3.55;;;0.98;;
59042;SDS011;44826;51.596;5.624;2023-07-13T00:17:26;4.20;;;1.00;;
59042;SDS011;44826;51.596;5.624;2023-07-13T00:19:52;4.20;;;0.90;;
59042;SDS011;44826;51.596;5.624;2023-07-13T00:22:19;1.65;;;0.80;;
59042;SDS011;44826;51.596;5.624;2023-07-13T00:24:44;3.85;;;1.20;;
59042;SDS011;44826;51.596;5.624;2023-07-13T00:27:10;3.22;;;1.00;;
59042;SDS011;44826;51.596;5.624;2023-07-13T00:29:36;2.85;;;1.00;;
59042;SDS011;44826;51.596;5.624;2023-07-13T00:32:02;3.58;;;1.20;;
59042;SDS011;44826;51.596;5.624;2023-07-13T00:34:29;5.07;;;0.95;;
59042;SDS011;44826;51.596;5.624;2023-07-13T00:36:55;3.33;;;1.00;;
59042;SDS011;44826;51.596;5.624;2023-07-13T00:39:20;2.55;;;1.00;;
59042;SDS011;44826;51.596;5.624;2023-07-13T00:41:46;3.35;;;0.80;;
59042;SDS011;44826;51.596;5.624;2023-07-13T00:44:14;3.78;;;0.90;;
59042;SDS011;44826;51.596;5.624;2023-07-13T00:46:41;3.78;;;0.90;;
59042;SDS011;44826;51.596;5.624;2023-07-13T00:49:07;2.65;;;0.90;;
59042;SDS011;44826;51.596;5.624;2023-07-13T00:51:45;3.53;;;1.00;;
59042;SDS011;44826;51.596;5.624;2023-07-13T00:54:17;5.15;;;0.93;;
59042;SDS011;44826;51.596;5.624;2023-07-13T00:56:44;2.45;;;0.85;;
59042;SDS011;44826;51.596;5.624;2023-07-13T00:59:11;2.28;;;1.00;;
59042;SDS011;44826;51.596;5.624;2023-07-13T01:01:39;1.45;;;0.80;;
59042;SDS011;44826;51.596;5.624;2023-07-13T01:04:05;3.03;;;0.90;;
59042;SDS011;44826;51.596;5.624;2023-07-13T01:06:33;3.67;;;0.90;;
59042;SDS011;44826;51.596;5.624;2023-07-13T01:09:00;3.15;;;0.80;;
59042;SDS011;44826;51.596;5.624;2023-07-13T01:11:26;3.67;;;1.30;;
59042;SDS011;44826;51.596;5.624;2023-07-13T01:13:51;2.15;;;0.88;;
59042;SDS011;44826;51.596;5.624;2023-07-13T01:16:32;3.67;;;1.13;;
59042;SDS011;44826;51.596;5.624;2023-07-13T01:18:59;3.30;;;0.90;;
59042;SDS011;44826;51.596;5.624;2023-07-13T01:21:26;1.60;;;0.75;;
59042;SDS011;44826;51.596;5.624;2023-07-13T01:23:53;2.45;;;0.80;;
59042;SDS011;44826;51.596;5.624;2023-07-13T01:26:19;2.80;;;0.88;;
59042;SDS011;44826;51.596;5.624;2023-07-13T01:28:45;3.90;;;0.90;;
59042;SDS011;44826;51.596;5.624;2023-07-13T01:31:10;2.58;;;1.13;;
59042;SDS011;44826;51.596;5.624;2023-07-13T01:33:37;3.85;;;1.23;;
59042;SDS011;44826;51.596;5.624;2023-07-13T01:36:05;3.30;;;0.90;;
59042;SDS011;44826;51.596;5.624;2023-07-13T01:38:31;2.15;;;0.80;;
59042;SDS011;44826;51.596;5.624;2023-07-13T01:40:59;3.28;;;0.98;;
59042;SDS011;44826;51.596;5.624;2023-07-13T01:43:24;3.70;;;1.00;;
59042;SDS011;44826;51.596;5.624;2023-07-13T01:45:49;2.28;;;0.95;;
59042;SDS011;44826;51.596;5.624;2023-07-13T01:48:15;3.55;;;0.95;;
59042;SDS011;44826;51.596;5.624;2023-07-13T01:50:40;3.70;;;1.10;;
59042;SDS011;44826;51.596;5.624;2023-07-13T01:53:06;3.03;;;0.80;;
59042;SDS011;44826;51.596;5.624;2023-07-13T01:55:31;5.10;;;1.83;;
59042;SDS011;44826;51.596;5.624;2023-07-13T01:57:57;2.33;;;1.00;;
59042;SDS011;44826;51.596;5.624;2023-07-13T02:00:22;4.40;;;0.80;;
59042;SDS011;44826;51.596;5.624;2023-07-13T02:02:48;1.85;;;0.82;;
59042;SDS011;44826;51.596;5.624;2023-07-13T02:05:14;2.35;;;0.90;;
59042;SDS011;44826;51.596;5.624;2023-07-13T02:07:40;3.20;;;1.00;;
59042;SDS011;44826;51.596;5.624;2023-07-13T02:10:06;3.35;;;1.00;;
59042;SDS011;44826;51.596;5.624;2023-07-13T02:12:33;2.58;;;0.93;;
59042;SDS011;44826;51.596;5.624;2023-07-13T02:14:59;4.13;;;1.20;;
59042;SDS011;44826;51.596;5.624;2023-07-13T02:17:25;2.85;;;1.08;;
59042;SDS011;44826;51.596;5.624;2023-07-13T02:19:51;1.75;;;0.90;;
59042;SDS011;44826;51.596;5.624;2023-07-13T02:22:17;3.97;;;1.20;;
59042;SDS011;44826;51.596;5.624;2023-07-13T02:24:42;1.88;;;0.90;;
59042;SDS011;44826;51.596;5.624;2023-07-13T02:27:07;2.67;;;0.90;;
59042;SDS011;44826;51.596;5.624;2023-07-13T02:29:33;5.90;;;1.10;;
59042;SDS011;44826;51.596;5.624;2023-07-13T02:31:58;3.67;;;1.08;;
59042;SDS011;44826;51.596;5.624;2023-07-13T02:34:23;2.80;;;1.08;;
59042;SDS011;44826;51.596;5.624;2023-07-13T02:36:49;4.18;;;1.00;;
59042;SDS011;44826;51.596;5.624;2023-07-13T02:39:14;4.05;;;1.27;;
59042;SDS011;44826;51.596;5.624;2023-07-13T02:41:40;3.22;;;1.20;;
59042;SDS011;44826;51.596;5.624;2023-07-13T02:44:05;4.18;;;1.08;;
59042;SDS011;44826;51.596;5.624;2023-07-13T02:46:33;4.72;;;1.10;;
59042;SDS011;44826;51.596;5.624;2023-07-13T02:48:59;4.10;;;1.08;;
59042;SDS011;44826;51.596;5.624;2023-07-13T02:51:25;4.53;;;1.25;;
59042;SDS011;44826;51.596;5.624;2023-07-13T02:53:51;4.00;;;1.30;;
59042;SDS011;44826;51.596;5.624;2023-07-13T02:56:16;2.85;;;1.10;;
59042;SDS011;44826;51.596;5.624;2023-07-13T02:58:41;5.03;;;1.02;;
59042;SDS011;44826;51.596;5.624;2023-07-13T03:01:07;3.22;;;1.10;;
59042;SDS011;44826;51.596;5.624;2023-07-13T03:03:34;4.38;;;1.08;;
59042;SDS011;44826;51.596;5.624;2023-07-13T03:06:01;4.22;;;1.00;;
59042;SDS011;44826;51.596;5.624;2023-07-13T03:08:28;3.92;;;1.25;;
59042;SDS011;44826;51.596;5.624;2023-07-13T03:11:00;5.65;;;1.25;;
59042;SDS011;44826;51.596;5.624;2023-07-13T03:13:27;3.60;;;1.00;;
59042;SDS011;44826;51.596;5.624;2023-07-13T03:15:52;4.10;;;1.20;;
59042;SDS011;44826;51.596;5.624;2023-07-13T03:18:17;4.88;;;1.10;;
59042;SDS011;44826;51.596;5.624;2023-07-13T03:20:43;4.65;;;1.10;;
59042;SDS011;44826;51.596;5.624;2023-07-13T03:23:08;2.50;;;1.13;;
59042;SDS011;44826;51.596;5.624;2023-07-13T03:25:34;4.70;;;1.27;;
59042;SDS011;44826;51.596;5.624;2023-07-13T03:27:59;4.22;;;1.25;;
59042;SDS011;44826;51.596;5.624;2023-07-13T03:30:25;5.53;;;1.38;;
59042;SDS011;44826;51.596;5.624;2023-07-13T03:32:50;4.60;;;1.15;;
59042;SDS011;44826;51.596;5.624;2023-07-13T03:35:15;3.55;;;1.23;;
59042;SDS011;44826;51.596;5.624;2023-07-13T03:37:41;4.55;;;1.25;;
59042;SDS011;44826;51.596;5.624;2023-07-13T03:40:07;3.72;;;1.23;;
59042;SDS011;44826;51.596;5.624;2023-07-13T03:42:34;4.10;;;1.20;;
59042;SDS011;44826;51.596;5.624;2023-07-13T03:44:59;4.22;;;1.30;;
59042;SDS011;44826;51.596;5.624;2023-07-13T03:47:25;3.95;;;1.33;;
59042;SDS011;44826;51.596;5.624;2023-07-13T03:49:50;5.60;;;1.27;;
59042;SDS011;44826;51.596;5.624;2023-07-13T03:52:15;5.90;;;1.35;;
59042;SDS011;44826;51.596;5.624;2023-07-13T03:54:40;4.72;;;1.40;;
59042;SDS011;44826;51.596;5.624;2023-07-13T03:57:06;5.35;;;1.27;;
59042;SDS011;44826;51.596;5.624;2023-07-13T03:59:31;6.40;;;1.50;;
59042;SDS011;44826;51.596;5.624;2023-07-13T04:01:57;6.65;;;1.50;;
59042;SDS011;44826;51.596;5.624;2023-07-13T04:04:22;3.55;;;1.30;;
59042;SDS011;44826;51.596;5.624;2023-07-13T04:06:47;3.83;;;1.60;;
59042;SDS011;44826;51.596;5.624;2023-07-13T04:09:13;6.03;;;1.50;;
59042;SDS011;44826;51.596;5.624;2023-07-13T04:11:38;4.97;;;1.60;;
59042;SDS011;44826;51.596;5.624;2023-07-13T04:14:04;3.65;;;1.30;;
59042;SDS011;44826;51.596;5.624;2023-07-13T04:16:29;5.85;;;1.52;;
59042;SDS011;44826;51.596;5.624;2023-07-13T04:18:55;4.55;;;1.90;;
59042;SDS011;44826;51.596;5.624;2023-07-13T04:21:24;6.72;;;1.45;;
59042;SDS011;44826;51.596;5.624;2023-07-13T04:23:54;5.65;;;1.70;;
59042;SDS011;44826;51.596;5.624;2023-07-13T04:26:20;8.43;;;1.60;;
59042;SDS011;44826;51.596;5.624;2023-07-13T04:28:46;7.15;;;1.90;;
59042;SDS011;44826;51.596;5.624;2023-07-13T04:31:12;5.30;;;1.50;;
59042;SDS011;44826;51.596;5.624;2023-07-13T04:33:37;5.13;;;1.60;;
59042;SDS011;44826;51.596;5.624;2023-07-13T04:36:02;6.38;;;1.80;;
59042;SDS011;44826;51.596;5.624;2023-07-13T04:38:29;5.57;;;2.25;;
59042;SDS011;44826;51.596;5.624;2023-07-13T04:40:58;6.78;;;1.83;;
59042;SDS011;44826;51.596;5.624;2023-07-13T04:43:28;6.05;;;1.77;;
59042;SDS011;44826;51.596;5.624;2023-07-13T04:45:54;4.78;;;1.80;;
59042;SDS011;44826;51.596;5.624;2023-07-13T04:48:19;7.53;;;2.40;;
59042;SDS011;44826;51.596;5.624;2023-07-13T04:50:45;5.50;;;1.88;;
59042;SDS011;44826;51.596;5.624;2023-07-13T04:53:11;8.52;;;2.17;;
59042;SDS011;44826;51.596;5.624;2023-07-13T04:55:37;7.38;;;2.83;;
59042;SDS011;44826;51.596;5.624;2023-07-13T04:58:03;10.13;;;3.30;;
59042;SDS011;44826;51.596;5.624;2023-07-13T05:00:30;11.48;;;3.42;;
59042;SDS011;44826;51.596;5.624;2023-07-13T05:02:56;9.82;;;3.13;;
59042;SDS011;44826;51.596;5.624;2023-07-13T05:05:23;11.15;;;3.78;;
59042;SDS011;44826;51.596;5.624;2023-07-13T05:07:49;10.55;;;3.92;;
59042;SDS011;44826;51.596;5.624;2023-07-13T05:10:14;11.63;;;4.40;;
59042;SDS011;44826;51.596;5.624;2023-07-13T05:12:40;10.90;;;4.20;;
59042;SDS011;44826;51.596;5.624;2023-07-13T05:15:06;11.00;;;4.20;;
59042;SDS011;44826;51.596;5.624;2023-07-13T05:17:32;13.00;;;4.57;;
59042;SDS011;44826;51.596;5.624;2023-07-13T05:19:57;11.63;;;4.50;;
59042;SDS011;44826;51.596;5.624;2023-07-13T05:22:22;9.63;;;4.57;;
59042;SDS011;44826;51.596;5.624;2023-07-13T05:24:48;12.68;;;5.10;;
59042;SDS011;44826;51.596;5.624;2023-07-13T05:27:13;12.63;;;5.07;;
59042;SDS011;44826;51.596;5.624;2023-07-13T05:29:38;15.18;;;5.22;;
59042;SDS011;44826;51.596;5.624;2023-07-13T05:32:04;13.77;;;5.40;;
59042;SDS011;44826;51.596;5.624;2023-07-13T05:34:30;12.75;;;5.35;;
59042;SDS011;44826;51.596;5.624;2023-07-13T05:36:55;13.38;;;6.05;;
59042;SDS011;44826;51.596;5.624;2023-07-13T05:39:20;11.55;;;5.55;;
59042;SDS011;44826;51.596;5.624;2023-07-13T05:41:46;15.35;;;6.07;;
59042;SDS011;44826;51.596;5.624;2023-07-13T05:44:11;13.85;;;5.75;;
59042;SDS011;44826;51.596;5.624;2023-07-13T05:46:36;15.73;;;6.53;;
59042;SDS011;44826;51.596;5.624;2023-07-13T05:49:02;11.88;;;6.10;;
59042;SDS011;44826;51.596;5.624;2023-07-13T05:51:28;16.02;;;6.10;;
59042;SDS011;44826;51.596;5.624;2023-07-13T05:53:54;12.98;;;5.88;;
59042;SDS011;44826;51.596;5.624;2023-07-13T05:56:19;14.30;;;6.38;;
59042;SDS011;44826;51.596;5.624;2023-07-13T05:58:44;14.70;;;5.93;;
59042;SDS011;44826;51.596;5.624;2023-07-13T06:01:10;14.30;;;5.90;;
59042;SDS011;44826;51.596;5.624;2023-07-13T06:03:37;12.65;;;5.63;;
59042;SDS011;44826;51.596;5.624;2023-07-13T06:06:04;13.73;;;5.97;;
59042;SDS011;44826;51.596;5.624;2023-07-13T06:08:30;12.57;;;5.90;;
59042;SDS011;44826;51.596;5.624;2023-07-13T06:11:01;15.50;;;6.47;;
59042;SDS011;44826;51.596;5.624;2023-07-13T06:13:30;13.00;;;6.22;;
59042;SDS011;44826;51.596;5.624;2023-07-13T06:15:56;12.70;;;5.97;;
59042;SDS011;44826;51.596;5.624;2023-07-13T06:18:21;16.45;;;6.25;;
59042;SDS011;44826;51.596;5.624;2023-07-13T06:20:46;13.25;;;6.35;;
59042;SDS011;44826;51.596;5.624;2023-07-13T06:23:12;12.25;;;6.50;;
59042;SDS011;44826;51.596;5.624;2023-07-13T06:25:37;14.98;;;6.63;;
59042;SDS011;44826;51.596;5.624;2023-07-13T06:28:02;12.00;;;6.43;;
59042;SDS011;44826;51.596;5.624;2023-07-13T06:30:28;10.27;;;5.95;;
59042;SDS011;44826;51.596;5.624;2023-07-13T06:32:53;12.57;;;6.07;;
59042;SDS011;44826;51.596;5.624;2023-07-13T06:35:19;16.13;;;7.15;;
59042;SDS011;44826;51.596;5.624;2023-07-13T06:37:44;13.43;;;6.55;;
59042;SDS011;44826;51.596;5.624;2023-07-13T06:40:10;13.98;;;6.63;;
59042;SDS011;44826;51.596;5.624;2023-07-13T06:42:35;12.63;;;6.40;;
59042;SDS011;44826;51.596;5.624;2023-07-13T06:45:01;14.57;;;6.30;;
59042;SDS011;44826;51.596;5.624;2023-07-13T06:47:26;13.88;;;6.60;;
59042;SDS011;44826;51.596;5.624;2023-07-13T06:49:52;16.60;;;6.72;;
59042;SDS011;44826;51.596;5.624;2023-07-13T06:52:17;15.80;;;6.93;;
59042;SDS011;44826;51.596;5.624;2023-07-13T06:54:42;12.13;;;6.43;;
59042;SDS011;44826;51.596;5.624;2023-07-13T06:57:08;14.88;;;6.78;;
59042;SDS011;44826;51.596;5.624;2023-07-13T06:59:34;14.00;;;6.00;;
59042;SDS011;44826;51.596;5.624;2023-07-13T07:02:02;16.17;;;6.55;;
59042;SDS011;44826;51.596;5.624;2023-07-13T07:04:29;14.27;;;6.70;;
59042;SDS011;44826;51.596;5.624;2023-07-13T07:06:54;14.18;;;6.60;;
59042;SDS011;44826;51.596;5.624;2023-07-13T07:09:19;11.90;;;6.43;;
59042;SDS011;44826;51.596;5.624;2023-07-13T07:11:45;13.88;;;6.70;;
59042;SDS011;44826;51.596;5.624;2023-07-13T07:14:10;13.27;;;6.45;;
59042;SDS011;44826;51.596;5.624;2023-07-13T07:16:35;12.90;;;6.65;;
59042;SDS011;44826;51.596;5.624;2023-07-13T07:19:01;13.18;;;6.13;;
59042;SDS011;44826;51.596;5.624;2023-07-13T07:21:26;13.00;;;6.53;;
59042;SDS011;44826;51.596;5.624;2023-07-13T07:23:52;12.50;;;6.88;;
59042;SDS011;44826;51.596;5.624;2023-07-13T07:26:18;16.40;;;6.57;;
59042;SDS011;44826;51.596;5.624;2023-07-13T07:28:43;14.35;;;6.25;;
59042;SDS011;44826;51.596;5.624;2023-07-13T07:31:09;15.35;;;6.47;;
59042;SDS011;44826;51.596;5.624;2023-07-13T07:33:35;16.38;;;6.85;;
59042;SDS011;44826;51.596;5.624;2023-07-13T07:36:01;13.50;;;6.43;;
59042;SDS011;44826;51.596;5.624;2023-07-13T07:38:27;11.93;;;6.32;;
59042;SDS011;44826;51.596;5.624;2023-07-13T07:40:52;10.50;;;5.65;;
59042;SDS011;44826;51.596;5.624;2023-07-13T07:43:18;12.88;;;6.05;;
59042;SDS011;44826;51.596;5.624;2023-07-13T07:45:44;15.32;;;6.13;;
59042;SDS011;44826;51.596;5.624;2023-07-13T07:48:10;10.77;;;5.47;;
59042;SDS011;44826;51.596;5.624;2023-07-13T07:50:36;13.52;;;5.75;;
59042;SDS011;44826;51.596;5.624;2023-07-13T07:53:05;14.63;;;5.93;;
59042;SDS011;44826;51.596;5.624;2023-07-13T07:55:35;13.77;;;5.63;;
59042;SDS011;44826;51.596;5.624;2023-07-13T07:58:01;15.02;;;6.15;;
59042;SDS011;44826;51.596;5.624;2023-07-13T08:00:26;13.55;;;5.75;;
59042;SDS011;44826;51.596;5.624;2023-07-13T08:02:55;12.70;;;5.82;;
59042;SDS011;44826;51.596;5.624;2023-07-13T08:05:20;12.82;;;5.28;;
59042;SDS011;44826;51.596;5.624;2023-07-13T08:07:46;10.32;;;5.45;;
59042;SDS011;44826;51.596;5.624;2023-07-13T08:10:11;13.43;;;5.47;;
59042;SDS011;44826;51.596;5.624;2023-07-13T08:12:37;13.25;;;5.53;;
59042;SDS011;44826;51.596;5.624;2023-07-13T08:15:06;10.05;;;5.22;;
59042;SDS011;44826;51.596;5.624;2023-07-13T08:17:35;11.90;;;5.65;;
59042;SDS011;44826;51.596;5.624;2023-07-13T08:20:00;13.32;;;5.15;;
59042;SDS011;44826;51.596;5.624;2023-07-13T08:22:26;11.57;;;4.72;;
59042;SDS011;44826;51.596;5.624;2023-07-13T08:24:52;10.25;;;4.78;;
59042;SDS011;44826;51.596;5.624;2023-07-13T08:27:21;12.05;;;4.45;;
59042;SDS011;44826;51.596;5.624;2023-07-13T08:29:50;10.27;;;5.00;;
59042;SDS011;44826;51.596;5.624;2023-07-13T08:32:17;8.75;;;4.25;;
59042;SDS011;44826;51.596;5.624;2023-07-13T08:34:43;8.60;;;4.53;;
59042;SDS011;44826;51.596;5.624;2023-07-13T08:37:08;8.27;;;4.00;;
59042;SDS011;44826;51.596;5.624;2023-07-13T08:39:34;10.75;;;4.32;;
59042;SDS011;44826;51.596;5.624;2023-07-13T08:42:11;9.45;;;4.35;;
59042;SDS011;44826;51.596;5.624;2023-07-13T08:47:30;6.63;;;3.78;;
59042;SDS011;44826;51.596;5.624;2023-07-13T08:50:00;9.53;;;3.63;;
59042;SDS011;44826;51.596;5.624;2023-07-13T08:52:35;8.00;;;3.83;;
59042;SDS011;44826;51.596;5.624;2023-07-13T08:55:05;8.00;;;3.85;;
59042;SDS011;44826;51.596;5.624;2023-07-13T08:57:39;8.52;;;3.70;;
59042;SDS011;44826;51.596;5.624;2023-07-13T09:00:12;8.75;;;3.80;;
59042;SDS011;44826;51.596;5.624;2023-07-13T09:02:53;11.23;;;4.18;;
59042;SDS011;44826;51.596;5.624;2023-07-13T09:11:01;8.63;;;3.65;;
59042;SDS011;44826;51.596;5.624;2023-07-13T09:13:33;8.65;;;3.92;;
59042;SDS011;44826;51.596;5.624;2023-07-13T09:16:08;6.35;;;3.47;;
59042;SDS011;44826;51.596;5.624;2023-07-13T09:18:36;7.45;;;3.70;;
59042;SDS011;44826;51.596;5.624;2023-07-13T09:21:07;6.65;;;3.53;;
59042;SDS011;44826;51.596;5.624;2023-07-13T09:23:34;8.95;;;4.55;;
59042;SDS011;44826;51.596;5.624;2023-07-13T09:26:05;6.80;;;4.28;;
59042;SDS011;44826;51.596;5.624;2023-07-13T09:28:41;8.85;;;4.55;;
59042;SDS011;44826;51.596;5.624;2023-07-13T09:31:10;6.65;;;4.00;;
59042;SDS011;44826;51.596;5.624;2023-07-13T09:33:37;7.90;;;3.60;;
59042;SDS011;44826;51.596;5.624;2023-07-13T09:36:15;6.53;;;3.67;;
59042;SDS011;44826;51.596;5.624;2023-07-13T09:38:45;7.75;;;3.83;;
59042;SDS011;44826;51.596;5.624;2023-07-13T09:45:17;7.07;;;3.78;;
59042;SDS011;44826;51.596;5.624;2023-07-13T09:48:49;7.63;;;3.35;;
59042;SDS011;44826;51.596;5.624;2023-07-13T09:51:39;7.82;;;4.32;;
59042;SDS011;44826;51.596;5.624;2023-07-13T09:54:23;8.98;;;3.33;;
59042;SDS011;44826;51.596;5.624;2023-07-13T09:56:57;6.18;;;3.22;;
59042;SDS011;44826;51.596;5.624;2023-07-13T09:59:29;6.10;;;3.40;;
59042;SDS011;44826;51.596;5.624;2023-07-13T10:01:58;7.55;;;3.65;;
59042;SDS011;44826;51.596;5.624;2023-07-13T10:04:29;9.30;;;3.63;;
59042;SDS011;44826;51.596;5.624;2023-07-13T10:07:08;7.95;;;3.50;;
59042;SDS011;44826;51.596;5.624;2023-07-13T10:09:38;6.78;;;3.75;;
59042;SDS011;44826;51.596;5.624;2023-07-13T10:12:04;6.75;;;3.83;;
59042;SDS011;44826;51.596;5.624;2023-07-13T10:14:38;8.65;;;3.70;;
59042;SDS011;44826;51.596;5.624;2023-07-13T10:17:04;5.38;;;3.50;;
59042;SDS011;44826;51.596;5.624;2023-07-13T10:19:34;6.90;;;3.17;;
59042;SDS011;44826;51.596;5.624;2023-07-13T10:22:02;6.95;;;3.20;;
59042;SDS011;44826;51.596;5.624;2023-07-13T10:24:40;7.40;;;3.20;;
59042;SDS011;44826;51.596;5.624;2023-07-13T10:29:45;7.63;;;3.22;;
59042;SDS011;44826;51.596;5.624;2023-07-13T10:32:34;4.38;;;2.70;;
59042;SDS011;44826;51.596;5.624;2023-07-13T10:34:59;7.03;;;2.60;;
59042;SDS011;44826;51.596;5.624;2023-07-13T10:37:27;5.45;;;2.58;;
59042;SDS011;44826;51.596;5.624;2023-07-13T10:39:56;6.18;;;2.42;;
59042;SDS011;44826;51.596;5.624;2023-07-13T10:42:38;3.80;;;2.47;;
59042;SDS011;44826;51.596;5.624;2023-07-13T10:45:17;5.55;;;2.60;;
59042;SDS011;44826;51.596;5.624;2023-07-13T10:47:45;5.50;;;2.30;;
59042;SDS011;44826;51.596;5.624;2023-07-13T10:50:15;7.63;;;2.30;;
59042;SDS011;44826;51.596;5.624;2023-07-13T10:52:46;7.32;;;2.10;;
59042;SDS011;44826;51.596;5.624;2023-07-13T10:58:24;7.65;;;2.30;;
59042;SDS011;44826;51.596;5.624;2023-07-13T11:01:03;3.03;;;2.03;;
59042;SDS011;44826;51.596;5.624;2023-07-13T11:03:34;3.92;;;2.17;;
59042;SDS011;44826;51.596;5.624;2023-07-13T11:06:07;4.60;;;2.70;;
59042;SDS011;44826;51.596;5.624;2023-07-13T11:14:02;6.18;;;2.50;;
59042;SDS011;44826;51.596;5.624;2023-07-13T11:16:48;4.97;;;2.50;;
59042;SDS011;44826;51.596;5.624;2023-07-13T11:24:47;4.30;;;2.92;;
59042;SDS011;44826;51.596;5.624;2023-07-13T11:33:02;4.55;;;2.85;;
59042;SDS011;44826;51.596;5.624;2023-07-13T11:35:31;8.43;;;3.38;;
59042;SDS011;44826;51.596;5.624;2023-07-13T11:37:58;8.15;;;3.55;;
59042;SDS011;44826;51.596;5.624;2023-07-13T11:40:25;5.82;;;3.30;;
59042;SDS011;44826;51.596;5.624;2023-07-13T11:42:58;7.50;;;3.53;;
59042;SDS011;44826;51.596;5.624;2023-07-13T11:45:25;6.75;;;3.60;;
59042;SDS011;44826;51.596;5.624;2023-07-13T11:47:50;6.35;;;3.65;;
59042;SDS011;44826;51.596;5.624;2023-07-13T11:50:25;8.85;;;4.03;;
59042;SDS011;44826;51.596;5.624;2023-07-13T11:52:51;7.95;;;4.50;;
59042;SDS011;44826;51.596;5.624;2023-07-13T11:55:20;8.63;;;4.50;;
59042;SDS011;44826;51.596;5.624;2023-07-13T11:57:54;7.55;;;4.05;;
59042;SDS011;44826;51.596;5.624;2023-07-13T12:00:26;18.65;;;3.88;;
59042;SDS011;44826;51.596;5.624;2023-07-13T12:02:54;6.97;;;3.72;;
59042;SDS011;44826;51.596;5.624;2023-07-13T12:05:25;6.40;;;3.30;;
59042;SDS011;44826;51.596;5.624;2023-07-13T12:07:51;8.38;;;3.10;;
59042;SDS011;44826;51.596;5.624;2023-07-13T12:10:26;4.80;;;2.78;;
59042;SDS011;44826;51.596;5.624;2023-07-13T12:12:58;5.05;;;2.92;;
59042;SDS011;44826;51.596;5.624;2023-07-13T12:18:12;5.43;;;3.15;;
59042;SDS011;44826;51.596;5.624;2023-07-13T12:20:40;7.82;;;3.60;;
59042;SDS011;44826;51.596;5.624;2023-07-13T12:23:06;6.78;;;3.53;;
59042;SDS011;44826;51.596;5.624;2023-07-13T12:25:47;7.10;;;3.60;;
59042;SDS011;44826;51.596;5.624;2023-07-13T12:28:22;5.53;;;3.35;;
59042;SDS011;44826;51.596;5.624;2023-07-13T12:31:05;11.98;;;3.30;;
59042;SDS011;44826;51.596;5.624;2023-07-13T12:33:32;8.82;;;3.42;;
59042;SDS011;44826;51.596;5.624;2023-07-13T12:36:00;7.18;;;3.25;;
59042;SDS011;44826;51.596;5.624;2023-07-13T12:38:27;4.88;;;2.55;;
59042;SDS011;44826;51.596;5.624;2023-07-13T12:40:54;8.50;;;2.90;;
59042;SDS011;44826;51.596;5.624;2023-07-13T12:43:20;5.55;;;2.92;;
59042;SDS011;44826;51.596;5.624;2023-07-13T12:48:20;5.57;;;2.70;;
59042;SDS011;44826;51.596;5.624;2023-07-13T12:50:47;4.20;;;2.10;;
59042;SDS011;44826;51.596;5.624;2023-07-13T12:53:16;3.35;;;2.10;;
59042;SDS011;44826;51.596;5.624;2023-07-13T12:55:51;6.03;;;2.35;;
59042;SDS011;44826;51.596;5.624;2023-07-13T12:58:22;5.93;;;1.98;;
59042;SDS011;44826;51.596;5.624;2023-07-13T13:00:53;4.53;;;1.70;;
59042;SDS011;44826;51.596;5.624;2023-07-13T13:03:31;4.30;;;1.60;;
59042;SDS011;44826;51.596;5.624;2023-07-13T13:06:01;5.95;;;1.88;;
59042;SDS011;44826;51.596;5.624;2023-07-13T13:08:28;4.28;;;1.50;;
59042;SDS011;44826;51.596;5.624;2023-07-13T13:10:55;4.85;;;1.70;;
59042;SDS011;44826;51.596;5.624;2023-07-13T13:13:20;4.25;;;1.77;;
59042;SDS011;44826;51.596;5.624;2023-07-13T13:15:49;3.47;;;1.73;;
59042;SDS011;44826;51.596;5.624;2023-07-13T13:20:47;4.28;;;1.77;;
59042;SDS011;44826;51.596;5.624;2023-07-13T13:23:17;5.28;;;2.20;;
59042;SDS011;44826;51.596;5.624;2023-07-13T13:25:49;3.92;;;1.65;;
59042;SDS011;44826;51.596;5.624;2023-07-13T13:28:16;4.35;;;2.08;;
59042;SDS011;44826;51.596;5.624;2023-07-13T13:30:46;4.18;;;1.73;;
59042;SDS011;44826;51.596;5.624;2023-07-13T13:51:26;5.70;;;2.00;;
59042;SDS011;44826;51.596;5.624;2023-07-13T13:53:52;4.80;;;2.17;;
59042;SDS011;44826;51.596;5.624;2023-07-13T13:56:18;7.30;;;2.42;;
59042;SDS011;44826;51.596;5.624;2023-07-13T13:58:44;6.32;;;2.20;;
59042;SDS011;44826;51.596;5.624;2023-07-13T14:01:16;4.82;;;2.17;;
59042;SDS011;44826;51.596;5.624;2023-07-13T14:03:45;4.38;;;2.10;;
59042;SDS011;44826;51.596;5.624;2023-07-13T14:06:13;4.15;;;1.75;;
59042;SDS011;44826;51.596;5.624;2023-07-13T14:08:40;5.18;;;1.85;;
59042;SDS011;44826;51.596;5.624;2023-07-13T14:11:05;4.95;;;2.00;;
59042;SDS011;44826;51.596;5.624;2023-07-13T14:13:37;6.55;;;2.30;;
59042;SDS011;44826;51.596;5.624;2023-07-13T14:16:13;4.28;;;1.83;;
59042;SDS011;44826;51.596;5.624;2023-07-13T14:18:42;4.22;;;1.80;;
59042;SDS011;44826;51.596;5.624;2023-07-13T14:21:13;3.03;;;1.92;;
59042;SDS011;44826;51.596;5.624;2023-07-13T14:23:39;2.30;;;1.65;;
59042;SDS011;44826;51.596;5.624;2023-07-13T14:26:09;5.70;;;1.70;;
59042;SDS011;44826;51.596;5.624;2023-07-13T14:28:41;3.10;;;1.70;;
59042;SDS011;44826;51.596;5.624;2023-07-13T14:31:09;3.00;;;1.50;;
59042;SDS011;44826;51.596;5.624;2023-07-13T14:33:35;5.47;;;1.67;;
59042;SDS011;44826;51.596;5.624;2023-07-13T14:36:00;3.03;;;1.65;;
59042;SDS011;44826;51.596;5.624;2023-07-13T14:38:27;3.78;;;1.80;;
59042;SDS011;44826;51.596;5.624;2023-07-13T14:40:52;6.30;;;1.88;;
59042;SDS011;44826;51.596;5.624;2023-07-13T14:43:18;4.60;;;1.90;;
59042;SDS011;44826;51.596;5.624;2023-07-13T14:45:44;4.00;;;2.03;;
59042;SDS011;44826;51.596;5.624;2023-07-13T14:48:19;3.45;;;1.85;;
59042;SDS011;44826;51.596;5.624;2023-07-13T14:50:46;4.18;;;1.88;;
59042;SDS011;44826;51.596;5.624;2023-07-13T14:53:18;3.80;;;1.83;;
59042;SDS011;44826;51.596;5.624;2023-07-13T14:55:43;4.82;;;1.85;;
59042;SDS011;44826;51.596;5.624;2023-07-13T14:58:08;3.70;;;1.70;;
59042;SDS011;44826;51.596;5.624;2023-07-13T15:00:34;3.63;;;1.90;;
59042;SDS011;44826;51.596;5.624;2023-07-13T15:03:00;3.47;;;1.55;;
59042;SDS011;44826;51.596;5.624;2023-07-13T15:05:27;4.75;;;1.70;;
59042;SDS011;44826;51.596;5.624;2023-07-13T15:07:56;3.42;;;1.70;;
59042;SDS011;44826;51.596;5.624;2023-07-13T15:10:24;4.95;;;1.70;;
59042;SDS011;44826;51.596;5.624;2023-07-13T15:12:52;4.03;;;1.80;;
59042;SDS011;44826;51.596;5.624;2023-07-13T15:15:21;4.75;;;1.80;;
59042;SDS011;44826;51.596;5.624;2023-07-13T15:17:47;4.15;;;1.90;;
59042;SDS011;44826;51.596;5.624;2023-07-13T15:22:58;4.32;;;1.60;;
59042;SDS011;44826;51.596;5.624;2023-07-13T15:25:24;5.30;;;1.60;;
59042;SDS011;44826;51.596;5.624;2023-07-13T15:27:52;3.33;;;1.58;;
59042;SDS011;44826;51.596;5.624;2023-07-13T15:30:20;2.85;;;1.48;;
59042;SDS011;44826;51.596;5.624;2023-07-13T15:32:46;4.03;;;1.60;;
59042;SDS011;44826;51.596;5.624;2023-07-13T15:35:19;4.07;;;1.45;;
59042;SDS011;44826;51.596;5.624;2023-07-13T15:43:08;3.95;;;1.77;;
59042;SDS011;44826;51.596;5.624;2023-07-13T15:46:04;6.45;;;1.90;;
59042;SDS011;44826;51.596;5.624;2023-07-13T15:55:49;5.40;;;2.00;;
59042;SDS011;44826;51.596;5.624;2023-07-13T15:58:18;3.25;;;1.98;;
59042;SDS011;44826;51.596;5.624;2023-07-13T16:00:45;4.57;;;1.67;;
59042;SDS011;44826;51.596;5.624;2023-07-13T16:03:10;3.97;;;1.85;;
59042;SDS011;44826;51.596;5.624;2023-07-13T16:05:37;4.43;;;2.08;;